createdAt,value
2018-11-03T00:00:52.894Z,0
2018-11-03T00:01:53.185Z,0
2018-11-03T00:02:53.367Z,0
2018-11-03T00:03:53.069Z,0
2018-11-03T00:04:52.955Z,0
2018-11-03T00:05:52.919Z,0
2018-11-03T00:06:52.720Z,0
2018-11-03T00:07:53.222Z,0
2018-11-03T00:08:52.871Z,0
2018-11-03T00:09:52.620Z,0
2018-11-03T00:10:53.134Z,0
2018-11-03T00:11:52.875Z,0
2018-11-03T00:12:53.838Z,0
2018-11-03T00:13:53.367Z,0
2018-11-03T00:14:52.327Z,0
2018-11-03T00:15:53.371Z,0
2018-11-03T00:16:54.714Z,0
2018-11-03T00:17:53.076Z,0
2018-11-03T00:18:53.077Z,0
2018-11-03T00:19:53.123Z,0
2018-11-03T00:20:52.795Z,0
2018-11-03T00:21:52.815Z,0
2018-11-03T00:22:52.619Z,0
2018-11-03T00:23:53.163Z,0
2018-11-03T00:24:53.351Z,0
2018-11-03T00:25:53.358Z,0
2018-11-03T00:26:53.007Z,0
2018-11-03T00:27:53.039Z,0
2018-11-03T00:28:52.811Z,0
2018-11-03T00:29:52.212Z,0
2018-11-03T00:30:52.745Z,0
2018-11-03T00:31:52.484Z,0
2018-11-03T00:32:53.847Z,0
2018-11-03T00:33:53.010Z,0
2018-11-03T00:34:52.709Z,0
2018-11-03T00:35:52.758Z,0
2018-11-03T00:36:52.760Z,0
2018-11-03T00:37:52.424Z,0
2018-11-03T00:38:52.424Z,0
2018-11-03T00:39:52.967Z,0
2018-11-03T00:40:52.763Z,0
2018-11-03T00:41:52.524Z,0
2018-11-03T00:42:54.360Z,0
2018-11-03T00:43:52.423Z,0
2018-11-03T00:44:52.679Z,0
2018-11-03T00:45:52.657Z,0
2018-11-03T00:46:53.447Z,0
2018-11-03T00:47:52.994Z,0
2018-11-03T00:48:53.171Z,0
2018-11-03T00:49:52.626Z,0
2018-11-03T00:50:52.891Z,0
2018-11-03T00:51:52.368Z,0
2018-11-03T00:52:53.406Z,0
2018-11-03T00:53:53.198Z,0
2018-11-03T00:54:52.884Z,0
2018-11-03T00:55:53.199Z,0
2018-11-03T00:56:52.854Z,0
2018-11-03T00:57:52.873Z,0
2018-11-03T00:58:52.092Z,0
2018-11-03T00:59:52.885Z,0
2018-11-03T01:00:52.578Z,0
2018-11-03T01:01:52.891Z,0
2018-11-03T01:02:52.874Z,0
2018-11-03T01:03:52.584Z,0
2018-11-03T01:04:52.615Z,0
2018-11-03T01:05:52.808Z,0
2018-11-03T01:06:52.285Z,0
2018-11-03T01:07:52.526Z,0
2018-11-03T01:08:52.822Z,0
2018-11-03T01:09:52.528Z,0
2018-11-03T01:10:52.777Z,0
2018-11-03T01:11:53.112Z,0
2018-11-03T01:12:53.418Z,0
2018-11-03T01:13:53.021Z,0
2018-11-03T01:14:52.249Z,0
2018-11-03T01:15:52.527Z,0
2018-11-03T01:16:52.711Z,0
2018-11-03T01:17:52.936Z,0
2018-11-03T01:18:52.506Z,0
2018-11-03T01:19:52.494Z,0
2018-11-03T01:20:52.974Z,0
2018-11-03T01:21:52.461Z,0
2018-11-03T01:22:52.183Z,0
2018-11-03T01:23:53.794Z,0
2018-11-03T01:24:52.427Z,0
2018-11-03T01:25:52.178Z,0
2018-11-03T01:26:52.435Z,0
2018-11-03T01:27:52.464Z,0
2018-11-03T01:28:52.664Z,0
2018-11-03T01:29:52.794Z,0
2018-11-03T01:30:52.979Z,0
2018-11-03T01:31:52.824Z,0
2018-11-03T01:32:53.681Z,0
2018-11-03T01:33:52.656Z,0
2018-11-03T01:34:52.393Z,0
2018-11-03T01:35:52.897Z,0
2018-11-03T01:36:52.450Z,0
2018-11-03T01:37:52.632Z,0
2018-11-03T01:38:52.621Z,0
2018-11-03T01:39:52.902Z,0
2018-11-03T01:40:52.896Z,0
2018-11-03T01:41:52.846Z,0
2018-11-03T01:42:53.361Z,0
2018-11-03T01:43:52.333Z,0
2018-11-03T01:44:52.602Z,0
2018-11-03T01:45:52.597Z,0
2018-11-03T01:46:52.354Z,0
2018-11-03T01:47:52.572Z,0
2018-11-03T01:48:52.605Z,0
2018-11-03T01:49:52.303Z,0
2018-11-03T01:50:52.264Z,0
2018-11-03T01:51:52.277Z,0
2018-11-03T01:52:52.892Z,0
2018-11-03T01:53:52.242Z,0
2018-11-03T01:54:51.999Z,0
2018-11-03T01:55:52.525Z,0
2018-11-03T01:56:52.285Z,0
2018-11-03T01:57:52.532Z,0
2018-11-03T01:58:52.491Z,0
2018-11-03T01:59:52.558Z,0
2018-11-03T02:00:52.518Z,0
2018-11-03T02:01:52.246Z,0
2018-11-03T02:02:53.357Z,0
2018-11-03T02:03:53.051Z,0
2018-11-03T02:04:52.220Z,0
2018-11-03T02:05:52.754Z,0
2018-11-03T02:06:52.299Z,0
2018-11-03T02:07:52.720Z,0
2018-11-03T02:08:52.728Z,0
2018-11-03T02:09:52.727Z,0
2018-11-03T02:10:52.431Z,0
2018-11-03T02:11:51.912Z,0
2018-11-03T02:12:52.496Z,0
2018-11-03T02:13:52.760Z,0
2018-11-03T02:14:52.419Z,0
2018-11-03T02:15:52.457Z,0
2018-11-03T02:16:52.661Z,0
2018-11-03T02:17:53.104Z,0
2018-11-03T02:18:52.669Z,0
2018-11-03T02:19:51.878Z,0
2018-11-03T02:20:52.638Z,0
2018-11-03T02:21:52.217Z,0
2018-11-03T02:22:52.127Z,0
2018-11-03T02:23:53.042Z,0
2018-11-03T02:24:52.098Z,0
2018-11-03T02:25:52.638Z,0
2018-11-03T02:26:52.356Z,0
2018-11-03T02:27:52.592Z,0
2018-11-03T02:28:52.331Z,0
2018-11-03T02:29:52.074Z,0
2018-11-03T02:30:52.595Z,0
2018-11-03T02:31:52.062Z,0
2018-11-03T02:32:52.408Z,0
2018-11-03T02:33:52.769Z,0
2018-11-03T02:34:52.627Z,0
2018-11-03T02:35:52.070Z,0
2018-11-03T02:36:52.295Z,0
2018-11-03T02:37:52.046Z,0
2018-11-03T02:38:52.069Z,0
2018-11-03T02:39:52.567Z,0
2018-11-03T02:40:52.263Z,0
2018-11-03T02:41:52.266Z,0
2018-11-03T02:42:52.286Z,0
2018-11-03T02:43:52.544Z,0
2018-11-03T02:44:52.283Z,0
2018-11-03T02:45:52.025Z,0
2018-11-03T02:46:52.597Z,0
2018-11-03T02:47:53.270Z,0
2018-11-03T02:48:52.212Z,0
2018-11-03T02:49:52.572Z,0
2018-11-03T02:50:52.199Z,0
2018-11-03T02:51:52.196Z,0
2018-11-03T02:52:52.451Z,0
2018-11-03T02:53:52.497Z,0
2018-11-03T02:54:51.657Z,0
2018-11-03T02:55:52.207Z,0
2018-11-03T02:56:51.949Z,0
2018-11-03T02:57:52.429Z,0
2018-11-03T02:58:51.894Z,0
2018-11-03T02:59:51.916Z,0
2018-11-03T03:00:51.964Z,0
2018-11-03T03:01:51.924Z,0
2018-11-03T03:02:52.133Z,0
2018-11-03T03:03:52.455Z,0
2018-11-03T03:04:51.867Z,0
2018-11-03T03:05:51.860Z,0
2018-11-03T03:06:52.139Z,0
2018-11-03T03:07:52.109Z,0
2018-11-03T03:08:51.601Z,0
2018-11-03T03:09:51.828Z,0
2018-11-03T03:10:52.135Z,0
2018-11-03T03:11:51.845Z,0
2018-11-03T03:12:52.089Z,0
2018-11-03T03:13:51.817Z,0
2018-11-03T03:14:51.857Z,0
2018-11-03T03:15:51.804Z,0
2018-11-03T03:16:52.331Z,0
2018-11-03T03:17:51.804Z,0
2018-11-03T03:18:51.772Z,0
2018-11-03T03:19:51.642Z,0
2018-11-03T03:20:52.119Z,0
2018-11-03T03:21:51.830Z,0
2018-11-03T03:22:52.059Z,0
2018-11-03T03:23:52.627Z,0
2018-11-03T03:24:52.350Z,0
2018-11-03T03:25:52.005Z,0
2018-11-03T03:26:51.754Z,0
2018-11-03T03:27:51.750Z,0
2018-11-03T03:28:52.451Z,0
2018-11-03T03:29:52.767Z,0
2018-11-03T03:30:52.263Z,0
2018-11-03T03:31:52.267Z,0
2018-11-03T03:32:51.950Z,0
2018-11-03T03:33:51.863Z,0
2018-11-03T03:34:51.676Z,0
2018-11-03T03:35:51.961Z,0
2018-11-03T03:36:51.442Z,0
2018-11-03T03:37:51.419Z,0
2018-11-03T03:38:51.930Z,0
2018-11-03T03:39:52.194Z,0
2018-11-03T03:40:52.219Z,0
2018-11-03T03:41:52.195Z,0
2018-11-03T03:42:52.111Z,0
2018-11-03T03:43:52.472Z,0
2018-11-03T03:44:51.667Z,0
2018-11-03T03:45:52.226Z,0
2018-11-03T03:46:52.199Z,0
2018-11-03T03:47:52.188Z,0
2018-11-03T03:48:51.953Z,0
2018-11-03T03:49:51.916Z,0
2018-11-03T03:50:51.925Z,0
2018-11-03T03:51:51.876Z,0
2018-11-03T03:52:52.390Z,0
2018-11-03T03:53:52.490Z,0
2018-11-03T03:54:51.300Z,0
2018-11-03T03:55:51.844Z,0
2018-11-03T03:56:51.586Z,0
2018-11-03T03:57:51.873Z,0
2018-11-03T03:58:51.555Z,0
2018-11-03T03:59:51.616Z,0
2018-11-03T04:00:51.276Z,0
2018-11-03T04:01:52.076Z,0
2018-11-03T04:02:51.993Z,0
2018-11-03T04:03:51.558Z,0
2018-11-03T04:04:51.828Z,0
2018-11-03T04:05:51.772Z,0
2018-11-03T04:06:51.517Z,0
2018-11-03T04:07:52.108Z,0
2018-11-03T04:08:51.814Z,0
2018-11-03T04:09:51.764Z,0
2018-11-03T04:10:51.763Z,0
2018-11-03T04:11:51.812Z,0
2018-11-03T04:12:51.711Z,0
2018-11-03T04:13:51.744Z,0
2018-11-03T04:14:51.810Z,0
2018-11-03T04:15:51.799Z,0
2018-11-03T04:16:51.467Z,0
2018-11-03T04:17:51.711Z,0
2018-11-03T04:18:52.082Z,0
2018-11-03T04:19:51.987Z,0
2018-11-03T04:20:51.724Z,0
2018-11-03T04:21:51.467Z,0
2018-11-03T04:22:52.193Z,0
2018-11-03T04:23:51.688Z,0
2018-11-03T04:24:51.676Z,0
2018-11-03T04:25:51.947Z,0
2018-11-03T04:26:51.405Z,0
2018-11-03T04:27:51.693Z,0
2018-11-03T04:28:51.394Z,0
2018-11-03T04:29:51.445Z,0
2018-11-03T04:30:51.651Z,0
2018-11-03T04:31:51.271Z,0
2018-11-03T04:32:52.039Z,0
2018-11-03T04:33:51.905Z,0
2018-11-03T04:34:51.631Z,0
2018-11-03T04:35:51.909Z,0
2018-11-03T04:36:51.366Z,0
2018-11-03T04:37:51.101Z,0
2018-11-03T04:38:51.365Z,0
2018-11-03T04:39:51.657Z,0
2018-11-03T04:40:51.872Z,0
2018-11-03T04:41:51.875Z,0
2018-11-03T04:42:51.890Z,0
2018-11-03T04:43:51.493Z,0
2018-11-03T04:44:51.326Z,0
2018-11-03T04:45:51.311Z,0
2018-11-03T04:46:51.573Z,0
2018-11-03T04:47:51.276Z,0
2018-11-03T04:48:52.047Z,0
2018-11-03T04:49:51.814Z,0
2018-11-03T04:50:51.003Z,0
2018-11-03T04:51:52.226Z,0
2018-11-03T04:52:52.130Z,0
2018-11-03T04:53:51.308Z,0
2018-11-03T04:54:51.620Z,0
2018-11-03T04:55:51.503Z,0
2018-11-03T04:56:51.032Z,0
2018-11-03T04:57:51.803Z,0
2018-11-03T04:58:50.951Z,0
2018-11-03T04:59:51.228Z,0
2018-11-03T05:00:51.559Z,0
2018-11-03T05:01:52.174Z,0
2018-11-03T05:02:51.989Z,0
2018-11-03T05:03:51.194Z,0
2018-11-03T05:04:50.928Z,0
2018-11-03T05:05:51.183Z,0
2018-11-03T05:06:51.176Z,0
2018-11-03T05:07:51.195Z,0
2018-11-03T05:08:51.423Z,0
2018-11-03T05:09:52.134Z,0
2018-11-03T05:10:51.451Z,0
2018-11-03T05:11:51.682Z,0
2018-11-03T05:12:51.539Z,0
2018-11-03T05:13:51.136Z,0
2018-11-03T05:14:50.903Z,0
2018-11-03T05:15:51.153Z,0
2018-11-03T05:16:51.395Z,0
2018-11-03T05:17:51.369Z,0
2018-11-03T05:18:52.172Z,0
2018-11-03T05:19:51.376Z,0
2018-11-03T05:20:50.847Z,0
2018-11-03T05:21:51.414Z,0
2018-11-03T05:22:52.193Z,0
2018-11-03T05:23:51.102Z,0
2018-11-03T05:24:51.376Z,0
2018-11-03T05:25:51.342Z,0
2018-11-03T05:26:51.332Z,0
2018-11-03T05:27:51.300Z,0
2018-11-03T05:28:50.788Z,0
2018-11-03T05:29:51.298Z,0
2018-11-03T05:30:51.051Z,0
2018-11-03T05:31:51.531Z,0
2018-11-03T05:32:51.774Z,0
2018-11-03T05:33:51.272Z,0
2018-11-03T05:34:51.276Z,0
2018-11-03T05:35:51.288Z,0
2018-11-03T05:36:51.007Z,0
2018-11-03T05:37:51.015Z,0
2018-11-03T05:38:50.804Z,0
2018-11-03T05:39:50.994Z,0
2018-11-03T05:40:50.722Z,0
2018-11-03T05:41:50.960Z,0
2018-11-03T05:42:51.022Z,0
2018-11-03T05:43:50.695Z,0
2018-11-03T05:44:50.963Z,0
2018-11-03T05:45:51.256Z,0
2018-11-03T05:46:51.249Z,0
2018-11-03T05:47:51.197Z,0
2018-11-03T05:48:51.755Z,0
2018-11-03T05:49:50.915Z,0
2018-11-03T05:50:51.458Z,0
2018-11-03T05:51:51.173Z,0
2018-11-03T05:52:51.582Z,0
2018-11-03T05:53:51.196Z,0
2018-11-03T05:54:51.422Z,0
2018-11-03T05:55:50.949Z,0
2018-11-03T05:56:50.629Z,0
2018-11-03T05:57:51.135Z,0
2018-11-03T05:58:51.432Z,0
2018-11-03T05:59:50.595Z,0
2018-11-03T06:00:51.125Z,0
2018-11-03T06:01:50.857Z,0
2018-11-03T06:02:50.983Z,0
2018-11-03T06:03:51.157Z,0
2018-11-03T06:04:50.597Z,0
2018-11-03T06:05:51.105Z,0
2018-11-03T06:06:51.096Z,0
2018-11-03T06:07:50.558Z,0
2018-11-03T06:08:51.557Z,0
2018-11-03T06:09:51.343Z,0
2018-11-03T06:10:50.828Z,0
2018-11-03T06:11:51.045Z,0
2018-11-03T06:12:51.311Z,0
2018-11-03T06:13:51.327Z,0
2018-11-03T06:14:51.042Z,0
2018-11-03T06:15:51.253Z,0
2018-11-03T06:16:50.809Z,0
2018-11-03T06:17:51.032Z,0
2018-11-03T06:18:50.807Z,5
2018-11-03T06:19:51.075Z,5
2018-11-03T06:20:50.738Z,5
2018-11-03T06:21:50.786Z,5
2018-11-03T06:22:50.907Z,5
2018-11-03T06:23:51.109Z,5
2018-11-03T06:24:50.488Z,5
2018-11-03T06:25:50.767Z,5
2018-11-03T06:26:50.755Z,5
2018-11-03T06:27:51.315Z,10
2018-11-03T06:28:50.460Z,10
2018-11-03T06:29:50.938Z,10
2018-11-03T06:30:50.700Z,10
2018-11-03T06:31:50.432Z,10
2018-11-03T06:32:51.102Z,10
2018-11-03T06:33:51.215Z,10
2018-11-03T06:34:50.918Z,10
2018-11-03T06:35:50.643Z,15
2018-11-03T06:36:50.633Z,15
2018-11-03T06:37:50.647Z,15
2018-11-03T06:38:51.692Z,15
2018-11-03T06:39:50.731Z,15
2018-11-03T06:40:51.226Z,15
2018-11-03T06:41:50.373Z,15
2018-11-03T06:42:51.193Z,20
2018-11-03T06:43:50.945Z,20
2018-11-03T06:44:51.127Z,20
2018-11-03T06:45:50.610Z,20
2018-11-03T06:46:50.526Z,20
2018-11-03T06:47:51.133Z,20
2018-11-03T06:48:50.868Z,20
2018-11-03T06:49:51.145Z,20
2018-11-03T06:50:50.040Z,25
2018-11-03T06:51:50.838Z,25
2018-11-03T06:52:50.853Z,25
2018-11-03T06:53:50.712Z,25
2018-11-03T06:54:51.089Z,25
2018-11-03T06:55:50.548Z,25
2018-11-03T06:56:50.622Z,25
2018-11-03T06:57:50.829Z,30
2018-11-03T06:58:50.268Z,30
2018-11-03T06:59:50.270Z,30
2018-11-03T07:00:50.518Z,30
2018-11-03T07:01:51.070Z,30
2018-11-03T07:02:50.840Z,30
2018-11-03T07:03:51.554Z,30
2018-11-03T07:04:51.082Z,30
2018-11-03T07:05:50.779Z,35
2018-11-03T07:06:50.492Z,35
2018-11-03T07:07:50.776Z,35
2018-11-03T07:08:50.235Z,35
2018-11-03T07:09:50.764Z,40
2018-11-03T07:10:50.209Z,40
2018-11-03T07:11:51.124Z,40
2018-11-03T07:12:52.312Z,40
2018-11-03T07:13:51.269Z,40
2018-11-03T07:14:50.458Z,45
2018-11-03T07:15:50.706Z,45
2018-11-03T07:16:50.456Z,45
2018-11-03T07:17:50.428Z,45
2018-11-03T07:18:50.958Z,45
2018-11-03T07:19:53.967Z,50
2018-11-03T07:20:50.666Z,50
2018-11-03T07:21:51.827Z,50
2018-11-03T07:22:50.981Z,50
2018-11-03T07:23:50.151Z,50
2018-11-03T07:24:50.434Z,50
2018-11-03T07:25:50.957Z,50
2018-11-03T07:26:50.392Z,50
2018-11-03T07:27:50.129Z,50
2018-11-03T07:28:50.388Z,50
2018-11-03T07:29:51.340Z,50
2018-11-03T07:30:50.100Z,50
2018-11-03T07:31:50.871Z,50
2018-11-03T07:32:50.258Z,50
2018-11-03T07:33:50.581Z,55
2018-11-03T07:34:50.614Z,55
2018-11-03T07:35:50.365Z,55
2018-11-03T07:36:50.320Z,60
2018-11-03T07:37:50.868Z,60
2018-11-03T07:38:50.079Z,60
2018-11-03T07:39:50.317Z,60
2018-11-03T07:40:50.618Z,60
2018-11-03T07:41:51.285Z,60
2018-11-03T07:42:51.895Z,60
2018-11-03T07:43:50.298Z,65
2018-11-03T07:44:50.820Z,65
2018-11-03T07:45:50.320Z,65
2018-11-03T07:46:50.293Z,65
2018-11-03T07:47:50.917Z,65
2018-11-03T07:48:50.377Z,65
2018-11-03T07:49:50.554Z,65
2018-11-03T07:50:51.845Z,65
2018-11-03T07:51:51.093Z,65
2018-11-03T07:52:50.533Z,65
2018-11-03T07:53:50.516Z,65
2018-11-03T07:54:51.610Z,65
2018-11-03T07:55:50.263Z,65
2018-11-03T07:56:49.989Z,70
2018-11-03T07:57:50.520Z,70
2018-11-03T07:58:50.824Z,70
2018-11-03T07:59:50.495Z,70
2018-11-03T08:00:50.386Z,70
2018-11-03T08:01:50.464Z,70
2018-11-03T08:02:50.519Z,75
2018-11-03T08:03:50.741Z,75
2018-11-03T08:04:50.463Z,75
2018-11-03T08:05:50.187Z,75
2018-11-03T08:06:50.729Z,75
2018-11-03T08:07:50.439Z,80
2018-11-03T08:08:50.267Z,85
2018-11-03T08:09:50.180Z,80
2018-11-03T08:10:50.747Z,90
2018-11-03T08:11:50.132Z,85
2018-11-03T08:12:50.367Z,85
2018-11-03T08:13:50.377Z,85
2018-11-03T08:14:50.381Z,85
2018-11-03T08:15:50.888Z,85
2018-11-03T08:16:50.679Z,85
2018-11-03T08:17:50.130Z,85
2018-11-03T08:18:50.391Z,85
2018-11-03T08:19:49.859Z,85
2018-11-03T08:20:49.955Z,85
2018-11-03T08:21:50.735Z,90
2018-11-03T08:22:50.464Z,95
2018-11-03T08:23:50.675Z,90
2018-11-03T08:24:50.636Z,90
2018-11-03T08:25:50.362Z,90
2018-11-03T08:26:50.373Z,90
2018-11-03T08:27:50.621Z,90
2018-11-03T08:28:50.364Z,90
2018-11-03T08:29:50.362Z,90
2018-11-03T08:30:50.872Z,95
2018-11-03T08:31:50.111Z,90
2018-11-03T08:32:50.060Z,95
2018-11-03T08:33:50.363Z,95
2018-11-03T08:34:50.074Z,95
2018-11-03T08:35:50.579Z,90
2018-11-03T08:36:50.334Z,90
2018-11-03T08:37:50.384Z,90
2018-11-03T08:38:49.814Z,90
2018-11-03T08:39:51.339Z,90
2018-11-03T08:40:50.809Z,90
2018-11-03T08:41:51.058Z,90
2018-11-03T08:42:50.315Z,90
2018-11-03T08:43:50.541Z,90
2018-11-03T08:44:50.546Z,95
2018-11-03T08:45:50.296Z,90
2018-11-03T08:46:50.264Z,90
2018-11-03T08:47:50.534Z,90
2018-11-03T08:48:51.310Z,90
2018-11-03T08:49:50.275Z,90
2018-11-03T08:50:50.134Z,90
2018-11-03T08:51:50.064Z,90
2018-11-03T08:52:50.268Z,90
2018-11-03T08:53:49.975Z,90
2018-11-03T08:54:50.506Z,95
2018-11-03T08:55:50.495Z,95
2018-11-03T08:56:49.703Z,100
2018-11-03T08:57:50.526Z,105
2018-11-03T08:58:50.540Z,110
2018-11-03T08:59:51.193Z,110
2018-11-03T09:00:50.203Z,115
2018-11-03T09:01:50.386Z,115
2018-11-03T09:02:50.575Z,115
2018-11-03T09:03:49.935Z,115
2018-11-03T09:04:50.199Z,115
2018-11-03T09:05:49.923Z,115
2018-11-03T09:06:50.644Z,115
2018-11-03T09:07:50.203Z,120
2018-11-03T09:08:50.030Z,120
2018-11-03T09:09:50.277Z,120
2018-11-03T09:10:53.974Z,125
2018-11-03T09:11:51.065Z,125
2018-11-03T09:12:50.053Z,130
2018-11-03T09:13:50.219Z,130
2018-11-03T09:14:50.687Z,130
2018-11-03T09:15:50.321Z,140
2018-11-03T09:16:50.770Z,140
2018-11-03T09:17:49.914Z,135
2018-11-03T09:18:50.280Z,130
2018-11-03T09:19:49.879Z,130
2018-11-03T09:20:50.408Z,130
2018-11-03T09:21:49.956Z,130
2018-11-03T09:22:51.258Z,130
2018-11-03T09:23:50.143Z,130
2018-11-03T09:24:50.135Z,130
2018-11-03T09:25:50.110Z,130
2018-11-03T09:26:50.351Z,135
2018-11-03T09:27:50.145Z,135
2018-11-03T09:28:49.551Z,135
2018-11-03T09:29:49.873Z,135
2018-11-03T09:30:50.087Z,135
2018-11-03T09:31:50.473Z,135
2018-11-03T09:32:50.160Z,135
2018-11-03T09:33:50.078Z,130
2018-11-03T09:34:51.031Z,130
2018-11-03T09:35:49.843Z,130
2018-11-03T09:36:49.534Z,125
2018-11-03T09:37:49.871Z,125
2018-11-03T09:38:50.666Z,120
2018-11-03T09:39:50.083Z,120
2018-11-03T09:40:49.255Z,120
2018-11-03T09:41:50.024Z,120
2018-11-03T09:42:50.349Z,120
2018-11-03T09:43:50.040Z,120
2018-11-03T09:44:50.533Z,120
2018-11-03T09:45:50.305Z,120
2018-11-03T09:46:50.302Z,120
2018-11-03T09:47:49.782Z,120
2018-11-03T09:48:49.796Z,120
2018-11-03T09:49:50.032Z,120
2018-11-03T09:50:51.115Z,120
2018-11-03T09:51:50.299Z,125
2018-11-03T09:52:50.857Z,125
2018-11-03T09:53:50.070Z,125
2018-11-03T09:54:49.470Z,125
2018-11-03T09:55:50.049Z,125
2018-11-03T09:56:50.679Z,125
2018-11-03T09:57:49.486Z,130
2018-11-03T09:58:50.060Z,130
2018-11-03T09:59:49.751Z,130
2018-11-03T10:00:49.963Z,130
2018-11-03T10:01:49.708Z,135
2018-11-03T10:02:50.620Z,135
2018-11-03T10:03:49.450Z,130
2018-11-03T10:04:50.060Z,130
2018-11-03T10:05:49.977Z,130
2018-11-03T10:06:50.696Z,130
2018-11-03T10:07:49.715Z,130
2018-11-03T10:08:49.705Z,130
2018-11-03T10:09:49.703Z,130
2018-11-03T10:10:49.951Z,130
2018-11-03T10:11:49.999Z,130
2018-11-03T10:12:50.909Z,130
2018-11-03T10:13:49.698Z,125
2018-11-03T10:14:49.956Z,125
2018-11-03T10:15:50.419Z,125
2018-11-03T10:16:49.453Z,120
2018-11-03T10:17:49.930Z,115
2018-11-03T10:18:49.681Z,110
2018-11-03T10:19:49.648Z,110
2018-11-03T10:20:49.665Z,110
2018-11-03T10:21:51.529Z,110
2018-11-03T10:22:50.825Z,110
2018-11-03T10:23:50.133Z,115
2018-11-03T10:24:49.941Z,120
2018-11-03T10:25:49.629Z,120
2018-11-03T10:26:50.213Z,120
2018-11-03T10:27:49.927Z,125
2018-11-03T10:28:50.129Z,125
2018-11-03T10:29:49.909Z,125
2018-11-03T10:30:49.948Z,120
2018-11-03T10:31:49.331Z,125
2018-11-03T10:32:50.478Z,130
2018-11-03T10:33:50.588Z,135
2018-11-03T10:34:49.331Z,135
2018-11-03T10:35:49.621Z,135
2018-11-03T10:36:49.640Z,140
2018-11-03T10:37:49.620Z,140
2018-11-03T10:38:49.603Z,140
2018-11-03T10:39:49.656Z,140
2018-11-03T10:40:49.859Z,140
2018-11-03T10:41:50.231Z,140
2018-11-03T10:42:49.351Z,135
2018-11-03T10:43:50.733Z,135
2018-11-03T10:44:49.828Z,140
2018-11-03T10:45:49.548Z,140
2018-11-03T10:46:50.097Z,140
2018-11-03T10:47:50.093Z,140
2018-11-03T10:48:49.553Z,145
2018-11-03T10:49:49.856Z,145
2018-11-03T10:50:49.570Z,150
2018-11-03T10:51:50.255Z,155
2018-11-03T10:52:49.326Z,155
2018-11-03T10:53:50.311Z,160
2018-11-03T10:54:50.085Z,160
2018-11-03T10:55:50.052Z,165
2018-11-03T10:56:50.088Z,165
2018-11-03T10:57:49.564Z,165
2018-11-03T10:58:49.040Z,165
2018-11-03T10:59:49.539Z,165
2018-11-03T11:00:49.503Z,165
2018-11-03T11:01:49.563Z,165
2018-11-03T11:02:50.221Z,170
2018-11-03T11:03:50.098Z,175
2018-11-03T11:04:50.099Z,175
2018-11-03T11:05:49.794Z,175
2018-11-03T11:06:49.770Z,175
2018-11-03T11:07:49.793Z,180
2018-11-03T11:08:50.041Z,180
2018-11-03T11:09:49.840Z,180
2018-11-03T11:10:49.517Z,180
2018-11-03T11:11:49.491Z,180
2018-11-03T11:12:50.029Z,180
2018-11-03T11:13:50.454Z,185
2018-11-03T11:14:49.220Z,185
2018-11-03T11:15:49.846Z,185
2018-11-03T11:16:50.588Z,185
2018-11-03T11:17:49.479Z,185
2018-11-03T11:18:49.751Z,185
2018-11-03T11:19:49.752Z,185
2018-11-03T11:20:49.229Z,185
2018-11-03T11:21:50.031Z,180
2018-11-03T11:22:51.103Z,185
2018-11-03T11:23:50.790Z,185
2018-11-03T11:24:51.087Z,185
2018-11-03T11:25:49.474Z,185
2018-11-03T11:26:49.718Z,185
2018-11-03T11:27:49.432Z,185
2018-11-03T11:28:49.449Z,185
2018-11-03T11:29:49.716Z,185
2018-11-03T11:30:49.694Z,185
2018-11-03T11:31:50.052Z,185
2018-11-03T11:32:50.352Z,190
2018-11-03T11:33:50.526Z,185
2018-11-03T11:34:49.440Z,190
2018-11-03T11:35:49.962Z,185
2018-11-03T11:36:49.470Z,180
2018-11-03T11:37:49.826Z,185
2018-11-03T11:38:50.219Z,180
2018-11-03T11:39:48.911Z,175
2018-11-03T11:40:49.710Z,185
2018-11-03T11:41:49.692Z,175
2018-11-03T11:42:49.870Z,170
2018-11-03T11:43:49.588Z,175
2018-11-03T11:44:49.816Z,175
2018-11-03T11:45:50.004Z,185
2018-11-03T11:46:49.468Z,195
2018-11-03T11:47:49.948Z,195
2018-11-03T11:48:49.405Z,195
2018-11-03T11:49:49.686Z,190
2018-11-03T11:50:49.125Z,185
2018-11-03T11:51:49.794Z,185
2018-11-03T11:52:49.926Z,185
2018-11-03T11:53:50.369Z,185
2018-11-03T11:54:49.968Z,185
2018-11-03T11:55:49.985Z,180
2018-11-03T11:56:49.680Z,180
2018-11-03T11:57:49.632Z,175
2018-11-03T11:58:49.913Z,175
2018-11-03T11:59:49.626Z,175
2018-11-03T12:00:50.740Z,175
2018-11-03T12:01:49.350Z,185
2018-11-03T12:02:50.314Z,195
2018-11-03T12:03:49.946Z,195
2018-11-03T12:04:49.624Z,190
2018-11-03T12:05:49.636Z,195
2018-11-03T12:06:49.672Z,185
2018-11-03T12:07:49.622Z,185
2018-11-03T12:08:49.358Z,185
2018-11-03T12:09:49.697Z,180
2018-11-03T12:10:49.083Z,175
2018-11-03T12:11:49.088Z,180
2018-11-03T12:12:49.692Z,185
2018-11-03T12:13:49.900Z,180
2018-11-03T12:14:49.702Z,175
2018-11-03T12:15:49.848Z,175
2018-11-03T12:16:49.871Z,170
2018-11-03T12:17:49.081Z,170
2018-11-03T12:18:49.584Z,180
2018-11-03T12:19:49.313Z,170
2018-11-03T12:20:49.324Z,170
2018-11-03T12:21:49.315Z,180
2018-11-03T12:22:49.347Z,180
2018-11-03T12:23:49.694Z,185
2018-11-03T12:24:49.526Z,185
2018-11-03T12:25:50.723Z,180
2018-11-03T12:26:49.984Z,185
2018-11-03T12:27:49.534Z,175
2018-11-03T12:28:49.557Z,175
2018-11-03T12:29:49.294Z,185
2018-11-03T12:30:49.568Z,190
2018-11-03T12:31:49.566Z,175
2018-11-03T12:32:49.855Z,190
2018-11-03T12:33:49.659Z,185
2018-11-03T12:34:49.565Z,185
2018-11-03T12:35:49.533Z,180
2018-11-03T12:36:49.003Z,170
2018-11-03T12:37:49.341Z,170
2018-11-03T12:38:49.010Z,170
2018-11-03T12:39:49.536Z,185
2018-11-03T12:40:49.695Z,180
2018-11-03T12:41:49.519Z,185
2018-11-03T12:42:49.913Z,180
2018-11-03T12:43:49.390Z,185
2018-11-03T12:44:49.358Z,180
2018-11-03T12:45:48.993Z,185
2018-11-03T12:46:49.544Z,175
2018-11-03T12:47:49.829Z,175
2018-11-03T12:48:49.630Z,170
2018-11-03T12:49:49.046Z,170
2018-11-03T12:50:49.787Z,165
2018-11-03T12:51:49.705Z,155
2018-11-03T12:52:49.796Z,155
2018-11-03T12:53:49.937Z,155
2018-11-03T12:54:49.266Z,160
2018-11-03T12:55:49.787Z,165
2018-11-03T12:56:49.270Z,160
2018-11-03T12:57:49.522Z,165
2018-11-03T12:58:49.278Z,160
2018-11-03T12:59:49.489Z,160
2018-11-03T13:00:48.943Z,155
2018-11-03T13:01:48.949Z,155
2018-11-03T13:02:49.000Z,155
2018-11-03T13:03:48.695Z,155
2018-11-03T13:04:49.246Z,155
2018-11-03T13:05:49.904Z,160
2018-11-03T13:06:49.219Z,160
2018-11-03T13:07:49.247Z,160
2018-11-03T13:08:49.501Z,160
2018-11-03T13:09:49.888Z,155
2018-11-03T13:10:48.981Z,155
2018-11-03T13:11:49.442Z,155
2018-11-03T13:12:49.717Z,160
2018-11-03T13:13:49.451Z,160
2018-11-03T13:14:49.451Z,160
2018-11-03T13:15:49.519Z,155
2018-11-03T13:16:49.194Z,145
2018-11-03T13:17:48.943Z,145
2018-11-03T13:18:49.188Z,140
2018-11-03T13:19:49.204Z,140
2018-11-03T13:20:49.193Z,140
2018-11-03T13:21:49.693Z,140
2018-11-03T13:22:49.521Z,140
2018-11-03T13:23:50.234Z,140
2018-11-03T13:24:49.213Z,135
2018-11-03T13:25:49.439Z,135
2018-11-03T13:26:49.170Z,135
2018-11-03T13:27:49.426Z,135
2018-11-03T13:28:49.169Z,130
2018-11-03T13:29:49.415Z,130
2018-11-03T13:30:49.430Z,130
2018-11-03T13:31:48.904Z,130
2018-11-03T13:32:49.437Z,130
2018-11-03T13:33:49.166Z,130
2018-11-03T13:34:49.968Z,130
2018-11-03T13:35:49.442Z,130
2018-11-03T13:36:49.136Z,130
2018-11-03T13:37:49.403Z,130
2018-11-03T13:38:49.395Z,130
2018-11-03T13:39:49.142Z,125
2018-11-03T13:40:49.713Z,125
2018-11-03T13:41:49.118Z,125
2018-11-03T13:42:49.413Z,130
2018-11-03T13:43:49.209Z,130
2018-11-03T13:44:49.397Z,130
2018-11-03T13:45:49.129Z,125
2018-11-03T13:46:49.692Z,130
2018-11-03T13:47:50.229Z,125
2018-11-03T13:48:49.116Z,125
2018-11-03T13:49:49.107Z,120
2018-11-03T13:50:48.875Z,115
2018-11-03T13:51:49.357Z,115
2018-11-03T13:52:49.120Z,110
2018-11-03T13:53:50.715Z,110
2018-11-03T13:54:49.368Z,110
2018-11-03T13:55:48.861Z,105
2018-11-03T13:56:49.778Z,105
2018-11-03T13:57:49.121Z,105
2018-11-03T13:58:49.945Z,105
2018-11-03T13:59:49.381Z,105
2018-11-03T14:00:49.134Z,100
2018-11-03T14:01:49.357Z,100
2018-11-03T14:02:49.365Z,100
2018-11-03T14:03:48.592Z,100
2018-11-03T14:04:49.363Z,100
2018-11-03T14:05:49.336Z,100
2018-11-03T14:06:48.572Z,100
2018-11-03T14:07:49.078Z,100
2018-11-03T14:08:49.310Z,100
2018-11-03T14:09:48.810Z,100
2018-11-03T14:10:49.314Z,100
2018-11-03T14:11:49.324Z,100
2018-11-03T14:12:49.585Z,105
2018-11-03T14:13:49.372Z,105
2018-11-03T14:14:49.077Z,105
2018-11-03T14:15:49.465Z,105
2018-11-03T14:16:48.808Z,105
2018-11-03T14:17:49.060Z,105